sensor_id;sensor_type;location;lat;lon;timestamp;temperature;humidity
15409;DHT22;7803;48.130;13.788;2023-07-08T00:00:34;25.00;90.10
15409;DHT22;7803;48.130;13.788;2023-07-08T00:03:36;25.00;90.10
15409;DHT22;7803;48.130;13.788;2023-07-08T00:06:39;25.00;90.10
15409;DHT22;7803;48.130;13.788;2023-07-08T00:09:41;25.00;90.10
15409;DHT22;7803;48.130;13.788;2023-07-08T00:12:44;24.90;90.20
15409;DHT22;7803;48.130;13.788;2023-07-08T00:15:46;25.00;90.20
15409;DHT22;7803;48.130;13.788;2023-07-08T00:18:48;25.00;90.20
15409;DHT22;7803;48.130;13.788;2023-07-08T00:21:52;25.00;90.20
15409;DHT22;7803;48.130;13.788;2023-07-08T00:24:54;25.00;90.20
15409;DHT22;7803;48.130;13.788;2023-07-08T00:27:56;25.00;90.10
15409;DHT22;7803;48.130;13.788;2023-07-08T00:30:58;25.00;90.10
15409;DHT22;7803;48.130;13.788;2023-07-08T00:34:00;25.00;90.00
15409;DHT22;7803;48.130;13.788;2023-07-08T00:37:05;25.00;90.00
15409;DHT22;7803;48.130;13.788;2023-07-08T00:40:15;24.90;90.00
15409;DHT22;7803;48.130;13.788;2023-07-08T00:43:21;24.90;90.00
15409;DHT22;7803;48.130;13.788;2023-07-08T00:46:43;24.90;90.00
15409;DHT22;7803;48.130;13.788;2023-07-08T00:49:52;24.90;90.00
15409;DHT22;7803;48.130;13.788;2023-07-08T00:53:26;25.00;90.00
15409;DHT22;7803;48.130;13.788;2023-07-08T00:56:31;24.90;90.00
15409;DHT22;7803;48.130;13.788;2023-07-08T00:59:38;24.90;90.10
15409;DHT22;7803;48.130;13.788;2023-07-08T01:02:46;24.90;90.20
15409;DHT22;7803;48.130;13.788;2023-07-08T01:05:49;24.90;90.20
15409;DHT22;7803;48.130;13.788;2023-07-08T01:08:53;24.90;90.20
15409;DHT22;7803;48.130;13.788;2023-07-08T01:11:57;25.00;90.20
15409;DHT22;7803;48.130;13.788;2023-07-08T01:15:02;25.00;90.10
15409;DHT22;7803;48.130;13.788;2023-07-08T01:18:04;25.00;90.40
15409;DHT22;7803;48.130;13.788;2023-07-08T01:21:29;24.90;90.00
15409;DHT22;7803;48.130;13.788;2023-07-08T01:24:35;24.90;90.00
15409;DHT22;7803;48.130;13.788;2023-07-08T01:27:42;24.90;90.00
15409;DHT22;7803;48.130;13.788;2023-07-08T01:30:45;24.90;90.00
15409;DHT22;7803;48.130;13.788;2023-07-08T01:33:48;24.90;90.00
15409;DHT22;7803;48.130;13.788;2023-07-08T01:36:53;24.90;90.00
15409;DHT22;7803;48.130;13.788;2023-07-08T01:39:57;25.00;90.00
15409;DHT22;7803;48.130;13.788;2023-07-08T01:43:00;24.90;90.00
15409;DHT22;7803;48.130;13.788;2023-07-08T01:46:03;24.90;90.00
15409;DHT22;7803;48.130;13.788;2023-07-08T01:49:06;24.90;90.10
15409;DHT22;7803;48.130;13.788;2023-07-08T01:52:09;24.90;90.20
15409;DHT22;7803;48.130;13.788;2023-07-08T01:55:13;24.90;90.20
15409;DHT22;7803;48.130;13.788;2023-07-08T01:58:15;25.00;90.20
15409;DHT22;7803;48.130;13.788;2023-07-08T02:01:17;24.90;90.10
15409;DHT22;7803;48.130;13.788;2023-07-08T02:04:19;24.90;90.00
15409;DHT22;7803;48.130;13.788;2023-07-08T02:07:21;24.90;90.00
15409;DHT22;7803;48.130;13.788;2023-07-08T02:10:24;24.90;90.00
15409;DHT22;7803;48.130;13.788;2023-07-08T02:13:27;24.90;90.00
15409;DHT22;7803;48.130;13.788;2023-07-08T02:16:29;24.90;90.00
15409;DHT22;7803;48.130;13.788;2023-07-08T02:19:31;24.90;90.00
15409;DHT22;7803;48.130;13.788;2023-07-08T02:22:33;24.90;90.00
15409;DHT22;7803;48.130;13.788;2023-07-08T02:25:36;24.90;90.00
15409;DHT22;7803;48.130;13.788;2023-07-08T02:28:38;24.90;90.00
15409;DHT22;7803;48.130;13.788;2023-07-08T02:31:40;24.90;90.00
15409;DHT22;7803;48.130;13.788;2023-07-08T02:34:42;24.90;90.00
15409;DHT22;7803;48.130;13.788;2023-07-08T02:37:44;24.90;90.10
15409;DHT22;7803;48.130;13.788;2023-07-08T02:40:47;24.90;90.20
15409;DHT22;7803;48.130;13.788;2023-07-08T02:43:49;24.90;90.20
15409;DHT22;7803;48.130;13.788;2023-07-08T02:46:51;24.90;90.50
15409;DHT22;7803;48.130;13.788;2023-07-08T02:49:53;24.90;90.00
15409;DHT22;7803;48.130;13.788;2023-07-08T02:52:55;24.90;90.00
15409;DHT22;7803;48.130;13.788;2023-07-08T02:55:59;24.90;90.00
15409;DHT22;7803;48.130;13.788;2023-07-08T02:59:01;24.90;90.00
15409;DHT22;7803;48.130;13.788;2023-07-08T03:02:03;24.90;89.90
15409;DHT22;7803;48.130;13.788;2023-07-08T03:05:06;24.90;90.00
15409;DHT22;7803;48.130;13.788;2023-07-08T03:08:08;24.90;90.00
15409;DHT22;7803;48.130;13.788;2023-07-08T03:11:12;24.90;90.00
15409;DHT22;7803;48.130;13.788;2023-07-08T03:14:14;24.90;90.00
15409;DHT22;7803;48.130;13.788;2023-07-08T03:17:16;24.90;90.00
15409;DHT22;7803;48.130;13.788;2023-07-08T03:20:19;24.90;90.00
15409;DHT22;7803;48.130;13.788;2023-07-08T03:23:22;24.90;90.10
15409;DHT22;7803;48.130;13.788;2023-07-08T03:26:26;24.90;90.10
15409;DHT22;7803;48.130;13.788;2023-07-08T03:29:28;24.90;90.20
15409;DHT22;7803;48.130;13.788;2023-07-08T03:32:30;24.90;90.10
15409;DHT22;7803;48.130;13.788;2023-07-08T03:35:32;24.90;90.10
15409;DHT22;7803;48.130;13.788;2023-07-08T03:38:34;24.90;90.00
15409;DHT22;7803;48.130;13.788;2023-07-08T03:41:37;24.90;90.00
15409;DHT22;7803;48.130;13.788;2023-07-08T03:44:39;24.90;90.00
15409;DHT22;7803;48.130;13.788;2023-07-08T03:47:41;24.90;90.00
15409;DHT22;7803;48.130;13.788;2023-07-08T03:50:43;24.90;90.00
15409;DHT22;7803;48.130;13.788;2023-07-08T03:53:45;24.90;90.00
15409;DHT22;7803;48.130;13.788;2023-07-08T03:56:49;24.90;90.00
15409;DHT22;7803;48.130;13.788;2023-07-08T03:59:51;24.90;90.00
15409;DHT22;7803;48.130;13.788;2023-07-08T04:02:53;24.90;90.00
15409;DHT22;7803;48.130;13.788;2023-07-08T04:05:55;24.90;90.00
15409;DHT22;7803;48.130;13.788;2023-07-08T04:08:57;24.90;90.10
15409;DHT22;7803;48.130;13.788;2023-07-08T04:12:01;24.90;90.10
15409;DHT22;7803;48.130;13.788;2023-07-08T04:15:03;24.90;90.20
15409;DHT22;7803;48.130;13.788;2023-07-08T04:18:06;24.90;90.20
15409;DHT22;7803;48.130;13.788;2023-07-08T04:21:08;24.90;90.20
15409;DHT22;7803;48.130;13.788;2023-07-08T04:24:11;24.90;90.20
15409;DHT22;7803;48.130;13.788;2023-07-08T04:27:16;24.90;90.10
15409;DHT22;7803;48.130;13.788;2023-07-08T04:30:23;24.90;90.10
15409;DHT22;7803;48.130;13.788;2023-07-08T04:33:26;24.90;90.10
15409;DHT22;7803;48.130;13.788;2023-07-08T04:36:28;24.90;90.10
15409;DHT22;7803;48.130;13.788;2023-07-08T04:39:30;24.90;90.20
15409;DHT22;7803;48.130;13.788;2023-07-08T04:42:34;24.90;90.10
15409;DHT22;7803;48.130;13.788;2023-07-08T04:45:36;24.90;90.10
15409;DHT22;7803;48.130;13.788;2023-07-08T04:48:38;24.90;90.10
15409;DHT22;7803;48.130;13.788;2023-07-08T04:51:41;24.90;90.10
15409;DHT22;7803;48.130;13.788;2023-07-08T04:54:43;24.90;90.10
15409;DHT22;7803;48.130;13.788;2023-07-08T04:57:46;24.90;90.10
15409;DHT22;7803;48.130;13.788;2023-07-08T05:00:49;25.00;90.20
15409;DHT22;7803;48.130;13.788;2023-07-08T05:03:51;25.00;90.20
15409;DHT22;7803;48.130;13.788;2023-07-08T05:06:52;24.90;90.20
15409;DHT22;7803;48.130;13.788;2023-07-08T05:09:54;25.00;90.20
15409;DHT22;7803;48.130;13.788;2023-07-08T05:12:58;25.00;90.20
15409;DHT22;7803;48.130;13.788;2023-07-08T05:16:00;25.00;90.20
15409;DHT22;7803;48.130;13.788;2023-07-08T05:19:02;25.10;90.20
15409;DHT22;7803;48.130;13.788;2023-07-08T05:22:04;25.00;90.10
15409;DHT22;7803;48.130;13.788;2023-07-08T05:25:07;25.00;90.10
15409;DHT22;7803;48.130;13.788;2023-07-08T05:28:10;25.00;90.00
15409;DHT22;7803;48.130;13.788;2023-07-08T05:31:12;25.10;90.00
15409;DHT22;7803;48.130;13.788;2023-07-08T05:34:14;25.00;90.00
15409;DHT22;7803;48.130;13.788;2023-07-08T05:37:17;25.00;90.00
15409;DHT22;7803;48.130;13.788;2023-07-08T05:40:22;25.00;90.00
15409;DHT22;7803;48.130;13.788;2023-07-08T05:43:25;25.00;90.00
15409;DHT22;7803;48.130;13.788;2023-07-08T05:46:27;25.00;90.00
15409;DHT22;7803;48.130;13.788;2023-07-08T05:49:30;25.00;90.10
15409;DHT22;7803;48.130;13.788;2023-07-08T05:52:31;25.00;90.10
15409;DHT22;7803;48.130;13.788;2023-07-08T05:55:34;25.10;90.20
15409;DHT22;7803;48.130;13.788;2023-07-08T05:58:37;25.00;90.20
15409;DHT22;7803;48.130;13.788;2023-07-08T06:01:39;25.10;90.20
15409;DHT22;7803;48.130;13.788;2023-07-08T06:04:41;25.10;90.20
15409;DHT22;7803;48.130;13.788;2023-07-08T06:07:43;25.10;90.20
15409;DHT22;7803;48.130;13.788;2023-07-08T06:10:45;25.10;90.20
15409;DHT22;7803;48.130;13.788;2023-07-08T06:13:48;25.10;90.20
15409;DHT22;7803;48.130;13.788;2023-07-08T06:16:50;25.10;90.20
15409;DHT22;7803;48.130;13.788;2023-07-08T06:19:52;25.10;90.20
15409;DHT22;7803;48.130;13.788;2023-07-08T06:22:54;25.10;90.20
15409;DHT22;7803;48.130;13.788;2023-07-08T06:25:56;25.10;90.20
15409;DHT22;7803;48.130;13.788;2023-07-08T06:29:00;25.10;90.20
15409;DHT22;7803;48.130;13.788;2023-07-08T06:32:02;25.10;90.20
15409;DHT22;7803;48.130;13.788;2023-07-08T06:35:05;25.10;90.20
15409;DHT22;7803;48.130;13.788;2023-07-08T06:38:07;25.10;90.10
15409;DHT22;7803;48.130;13.788;2023-07-08T06:41:09;25.10;90.10
15409;DHT22;7803;48.130;13.788;2023-07-08T06:44:13;25.10;90.10
15409;DHT22;7803;48.130;13.788;2023-07-08T06:47:15;25.20;90.20
15409;DHT22;7803;48.130;13.788;2023-07-08T06:50:17;25.20;90.10
15409;DHT22;7803;48.130;13.788;2023-07-08T06:53:19;25.20;90.10
15409;DHT22;7803;48.130;13.788;2023-07-08T06:56:21;25.10;90.10
15409;DHT22;7803;48.130;13.788;2023-07-08T06:59:24;25.20;90.20
15409;DHT22;7803;48.130;13.788;2023-07-08T07:02:26;25.20;90.20
15409;DHT22;7803;48.130;13.788;2023-07-08T07:05:28;25.20;90.20
15409;DHT22;7803;48.130;13.788;2023-07-08T07:08:30;25.20;90.20
15409;DHT22;7803;48.130;13.788;2023-07-08T07:11:32;25.20;90.20
15409;DHT22;7803;48.130;13.788;2023-07-08T07:14:35;25.20;90.20
15409;DHT22;7803;48.130;13.788;2023-07-08T07:17:37;25.20;90.20
15409;DHT22;7803;48.130;13.788;2023-07-08T07:20:48;25.10;90.20
15409;DHT22;7803;48.130;13.788;2023-07-08T07:23:50;25.20;90.20
15409;DHT22;7803;48.130;13.788;2023-07-08T07:26:52;25.10;90.20
15409;DHT22;7803;48.130;13.788;2023-07-08T07:29:56;25.20;90.20
15409;DHT22;7803;48.130;13.788;2023-07-08T07:33:00;25.20;90.20
15409;DHT22;7803;48.130;13.788;2023-07-08T07:36:03;25.20;90.20
15409;DHT22;7803;48.130;13.788;2023-07-08T07:39:05;25.20;90.20
15409;DHT22;7803;48.130;13.788;2023-07-08T07:42:07;25.20;90.20
15409;DHT22;7803;48.130;13.788;2023-07-08T07:45:11;25.20;90.20
15409;DHT22;7803;48.130;13.788;2023-07-08T07:48:14;25.20;90.20
15409;DHT22;7803;48.130;13.788;2023-07-08T07:51:16;25.20;90.30
15409;DHT22;7803;48.130;13.788;2023-07-08T07:54:18;25.20;90.30
15409;DHT22;7803;48.130;13.788;2023-07-08T07:57:20;25.20;90.30
15409;DHT22;7803;48.130;13.788;2023-07-08T08:00:23;25.20;90.30
15409;DHT22;7803;48.130;13.788;2023-07-08T08:03:25;25.20;90.30
15409;DHT22;7803;48.130;13.788;2023-07-08T08:06:27;25.20;90.30
15409;DHT22;7803;48.130;13.788;2023-07-08T08:09:29;25.20;90.30
15409;DHT22;7803;48.130;13.788;2023-07-08T08:12:31;25.20;90.30
15409;DHT22;7803;48.130;13.788;2023-07-08T08:15:34;25.20;90.30
15409;DHT22;7803;48.130;13.788;2023-07-08T08:18:42;25.20;90.30
15409;DHT22;7803;48.130;13.788;2023-07-08T08:21:44;25.20;90.30
15409;DHT22;7803;48.130;13.788;2023-07-08T08:24:46;25.20;90.30
15409;DHT22;7803;48.130;13.788;2023-07-08T08:27:48;25.20;90.30
15409;DHT22;7803;48.130;13.788;2023-07-08T08:30:52;25.20;90.30
15409;DHT22;7803;48.130;13.788;2023-07-08T08:33:54;25.20;90.30
15409;DHT22;7803;48.130;13.788;2023-07-08T08:36:56;25.20;90.30
15409;DHT22;7803;48.130;13.788;2023-07-08T08:39:58;25.20;90.30
15409;DHT22;7803;48.130;13.788;2023-07-08T08:43:02;25.20;90.30
15409;DHT22;7803;48.130;13.788;2023-07-08T08:46:11;25.20;90.30
15409;DHT22;7803;48.130;13.788;2023-07-08T08:49:20;25.20;90.30
15409;DHT22;7803;48.130;13.788;2023-07-08T08:52:24;25.20;90.30
15409;DHT22;7803;48.130;13.788;2023-07-08T08:55:26;25.20;90.30
15409;DHT22;7803;48.130;13.788;2023-07-08T08:58:35;25.20;90.40
15409;DHT22;7803;48.130;13.788;2023-07-08T09:01:40;25.20;90.30
15409;DHT22;7803;48.130;13.788;2023-07-08T09:04:42;25.20;90.40
15409;DHT22;7803;48.130;13.788;2023-07-08T09:07:47;25.20;90.40
15409;DHT22;7803;48.130;13.788;2023-07-08T09:10:57;25.20;90.40
15409;DHT22;7803;48.130;13.788;2023-07-08T09:13:59;25.20;90.40
15409;DHT22;7803;48.130;13.788;2023-07-08T09:17:15;25.20;90.40
15409;DHT22;7803;48.130;13.788;2023-07-08T09:20:22;25.20;90.40
15409;DHT22;7803;48.130;13.788;2023-07-08T09:23:27;25.20;90.40
15409;DHT22;7803;48.130;13.788;2023-07-08T09:26:36;25.20;90.40
15409;DHT22;7803;48.130;13.788;2023-07-08T09:29:42;25.20;90.40
15409;DHT22;7803;48.130;13.788;2023-07-08T09:32:46;25.20;90.50
15409;DHT22;7803;48.130;13.788;2023-07-08T09:35:48;25.20;90.60
15409;DHT22;7803;48.130;13.788;2023-07-08T09:38:51;25.20;90.50
15409;DHT22;7803;48.130;13.788;2023-07-08T09:41:53;25.20;90.50
15409;DHT22;7803;48.130;13.788;2023-07-08T09:44:56;25.20;90.50
15409;DHT22;7803;48.130;13.788;2023-07-08T09:48:01;25.20;90.50
15409;DHT22;7803;48.130;13.788;2023-07-08T09:51:04;25.20;90.50
15409;DHT22;7803;48.130;13.788;2023-07-08T09:54:08;25.20;90.50
15409;DHT22;7803;48.130;13.788;2023-07-08T09:57:12;25.20;90.50
15409;DHT22;7803;48.130;13.788;2023-07-08T10:00:26;25.20;90.60
15409;DHT22;7803;48.130;13.788;2023-07-08T10:03:33;25.20;90.70
15409;DHT22;7803;48.130;13.788;2023-07-08T10:06:35;25.20;90.90
15409;DHT22;7803;48.130;13.788;2023-07-08T10:13:28;25.20;90.80
15409;DHT22;7803;48.130;13.788;2023-07-08T10:16:35;25.20;90.80
15409;DHT22;7803;48.130;13.788;2023-07-08T10:19:38;25.20;90.90
15409;DHT22;7803;48.130;13.788;2023-07-08T10:22:52;25.20;90.90
15409;DHT22;7803;48.130;13.788;2023-07-08T10:26:00;25.20;91.10
15409;DHT22;7803;48.130;13.788;2023-07-08T10:29:18;25.20;91.70
15409;DHT22;7803;48.130;13.788;2023-07-08T10:32:32;25.20;91.30
15409;DHT22;7803;48.130;13.788;2023-07-08T10:35:42;25.30;91.30
15409;DHT22;7803;48.130;13.788;2023-07-08T10:38:59;25.20;91.30
15409;DHT22;7803;48.130;13.788;2023-07-08T10:42:11;25.20;91.30
15409;DHT22;7803;48.130;13.788;2023-07-08T10:45:21;25.20;91.30
15409;DHT22;7803;48.130;13.788;2023-07-08T10:48:41;25.30;91.20
15409;DHT22;7803;48.130;13.788;2023-07-08T10:51:58;25.30;91.20
15409;DHT22;7803;48.130;13.788;2023-07-08T10:55:15;25.30;91.20
15409;DHT22;7803;48.130;13.788;2023-07-08T10:58:39;25.30;91.20
15409;DHT22;7803;48.130;13.788;2023-07-08T11:01:54;25.30;91.20
15409;DHT22;7803;48.130;13.788;2023-07-08T11:05:06;25.30;91.20
15409;DHT22;7803;48.130;13.788;2023-07-08T11:08:21;25.30;91.10
15409;DHT22;7803;48.130;13.788;2023-07-08T11:11:30;25.30;91.10
15409;DHT22;7803;48.130;13.788;2023-07-08T11:14:42;25.30;91.20
15409;DHT22;7803;48.130;13.788;2023-07-08T11:17:49;25.30;91.30
15409;DHT22;7803;48.130;13.788;2023-07-08T11:20:59;25.30;91.30
15409;DHT22;7803;48.130;13.788;2023-07-08T11:24:06;25.30;91.40
15409;DHT22;7803;48.130;13.788;2023-07-08T11:27:16;25.20;91.30
15409;DHT22;7803;48.130;13.788;2023-07-08T11:30:27;25.30;91.70
15409;DHT22;7803;48.130;13.788;2023-07-08T11:33:30;25.30;91.60
15409;DHT22;7803;48.130;13.788;2023-07-08T11:36:34;25.40;92.70
15409;DHT22;7803;48.130;13.788;2023-07-08T11:39:42;25.50;91.80
15409;DHT22;7803;48.130;13.788;2023-07-08T11:42:47;25.60;91.10
15409;DHT22;7803;48.130;13.788;2023-07-08T11:45:55;25.60;91.20
15409;DHT22;7803;48.130;13.788;2023-07-08T11:49:01;25.70;91.30
15409;DHT22;7803;48.130;13.788;2023-07-08T11:52:05;25.60;91.30
15409;DHT22;7803;48.130;13.788;2023-07-08T11:55:20;25.60;91.30
15409;DHT22;7803;48.130;13.788;2023-07-08T11:58:24;25.60;91.30
15409;DHT22;7803;48.130;13.788;2023-07-08T12:01:28;25.60;91.20
15409;DHT22;7803;48.130;13.788;2023-07-08T12:04:35;25.60;91.20
15409;DHT22;7803;48.130;13.788;2023-07-08T12:07:40;25.60;91.20
15409;DHT22;7803;48.130;13.788;2023-07-08T12:10:50;25.70;91.20
15409;DHT22;7803;48.130;13.788;2023-07-08T12:14:00;25.60;91.20
15409;DHT22;7803;48.130;13.788;2023-07-08T12:17:07;25.70;91.40
15409;DHT22;7803;48.130;13.788;2023-07-08T12:20:19;25.70;91.10
15409;DHT22;7803;48.130;13.788;2023-07-08T12:23:24;25.70;91.00
15409;DHT22;7803;48.130;13.788;2023-07-08T12:26:27;25.80;91.00
15409;DHT22;7803;48.130;13.788;2023-07-08T12:29:31;25.70;91.00
15409;DHT22;7803;48.130;13.788;2023-07-08T12:32:33;25.70;90.90
15409;DHT22;7803;48.130;13.788;2023-07-08T12:35:36;25.80;90.90
15409;DHT22;7803;48.130;13.788;2023-07-08T12:38:39;25.70;90.90
15409;DHT22;7803;48.130;13.788;2023-07-08T12:41:44;25.80;90.80
15409;DHT22;7803;48.130;13.788;2023-07-08T12:44:46;25.70;90.80
15409;DHT22;7803;48.130;13.788;2023-07-08T12:47:49;25.80;91.20
15409;DHT22;7803;48.130;13.788;2023-07-08T12:50:51;25.70;90.80
15409;DHT22;7803;48.130;13.788;2023-07-08T12:53:54;25.80;90.80
15409;DHT22;7803;48.130;13.788;2023-07-08T12:56:58;25.80;91.00
15409;DHT22;7803;48.130;13.788;2023-07-08T13:00:01;25.80;91.00
15409;DHT22;7803;48.130;13.788;2023-07-08T13:03:07;25.70;91.10
15409;DHT22;7803;48.130;13.788;2023-07-08T13:06:11;25.70;91.10
15409;DHT22;7803;48.130;13.788;2023-07-08T13:09:30;25.70;91.10
15409;DHT22;7803;48.130;13.788;2023-07-08T13:12:36;25.70;91.10
15409;DHT22;7803;48.130;13.788;2023-07-08T13:15:41;25.80;91.10
15409;DHT22;7803;48.130;13.788;2023-07-08T13:18:44;25.80;91.10
15409;DHT22;7803;48.130;13.788;2023-07-08T13:21:46;25.70;91.00
15409;DHT22;7803;48.130;13.788;2023-07-08T13:24:59;25.70;91.00
15409;DHT22;7803;48.130;13.788;2023-07-08T13:28:15;25.70;91.00
15409;DHT22;7803;48.130;13.788;2023-07-08T13:31:20;25.80;91.00
15409;DHT22;7803;48.130;13.788;2023-07-08T13:34:24;25.70;90.90
15409;DHT22;7803;48.130;13.788;2023-07-08T13:37:26;25.70;90.90
15409;DHT22;7803;48.130;13.788;2023-07-08T13:40:31;25.70;91.00
15409;DHT22;7803;48.130;13.788;2023-07-08T13:43:37;25.70;91.00
15409;DHT22;7803;48.130;13.788;2023-07-08T13:46:45;25.70;91.00
15409;DHT22;7803;48.130;13.788;2023-07-08T13:49:49;25.70;91.00
15409;DHT22;7803;48.130;13.788;2023-07-08T13:52:53;25.60;91.00
15409;DHT22;7803;48.130;13.788;2023-07-08T13:55:58;25.70;91.10
15409;DHT22;7803;48.130;13.788;2023-07-08T13:59:03;25.70;91.10
15409;DHT22;7803;48.130;13.788;2023-07-08T14:02:14;25.70;91.20
15409;DHT22;7803;48.130;13.788;2023-07-08T14:05:17;25.70;91.50
15409;DHT22;7803;48.130;13.788;2023-07-08T14:08:22;25.70;91.60
15409;DHT22;7803;48.130;13.788;2023-07-08T14:11:24;25.70;91.70
15409;DHT22;7803;48.130;13.788;2023-07-08T14:14:27;25.70;91.80
15409;DHT22;7803;48.130;13.788;2023-07-08T14:17:29;25.70;91.80
15409;DHT22;7803;48.130;13.788;2023-07-08T14:20:31;25.60;91.70
15409;DHT22;7803;48.130;13.788;2023-07-08T14:23:33;25.60;91.70
15409;DHT22;7803;48.130;13.788;2023-07-08T14:26:35;25.60;91.60
15409;DHT22;7803;48.130;13.788;2023-07-08T14:29:38;25.60;91.60
15409;DHT22;7803;48.130;13.788;2023-07-08T14:32:40;25.60;91.60
15409;DHT22;7803;48.130;13.788;2023-07-08T14:35:42;25.60;91.60
15409;DHT22;7803;48.130;13.788;2023-07-08T14:38:44;25.60;91.60
15409;DHT22;7803;48.130;13.788;2023-07-08T14:41:48;25.60;91.50
15409;DHT22;7803;48.130;13.788;2023-07-08T14:44:52;25.60;91.50
15409;DHT22;7803;48.130;13.788;2023-07-08T14:47:55;25.60;91.50
15409;DHT22;7803;48.130;13.788;2023-07-08T14:50:57;25.60;91.50
15409;DHT22;7803;48.130;13.788;2023-07-08T14:53:59;25.60;91.40
15409;DHT22;7803;48.130;13.788;2023-07-08T14:57:02;25.60;91.30
15409;DHT22;7803;48.130;13.788;2023-07-08T15:00:10;25.60;91.30
15409;DHT22;7803;48.130;13.788;2023-07-08T15:03:13;25.60;91.30
15409;DHT22;7803;48.130;13.788;2023-07-08T15:06:15;25.60;91.70
15409;DHT22;7803;48.130;13.788;2023-07-08T15:09:17;25.60;91.30
15409;DHT22;7803;48.130;13.788;2023-07-08T15:12:19;25.60;91.30
15409;DHT22;7803;48.130;13.788;2023-07-08T15:15:27;25.60;91.30
15409;DHT22;7803;48.130;13.788;2023-07-08T15:18:30;25.60;91.20
15409;DHT22;7803;48.130;13.788;2023-07-08T15:21:34;25.60;91.20
15409;DHT22;7803;48.130;13.788;2023-07-08T15:24:35;25.60;91.20
15409;DHT22;7803;48.130;13.788;2023-07-08T15:27:38;25.50;91.20
15409;DHT22;7803;48.130;13.788;2023-07-08T15:30:42;25.60;91.20
15409;DHT22;7803;48.130;13.788;2023-07-08T15:33:44;25.60;91.20
15409;DHT22;7803;48.130;13.788;2023-07-08T15:36:46;25.60;91.20
15409;DHT22;7803;48.130;13.788;2023-07-08T15:39:49;25.60;91.20
15409;DHT22;7803;48.130;13.788;2023-07-08T15:42:53;25.60;91.10
15409;DHT22;7803;48.130;13.788;2023-07-08T15:45:57;25.60;91.10
15409;DHT22;7803;48.130;13.788;2023-07-08T15:49:12;25.60;91.10
15409;DHT22;7803;48.130;13.788;2023-07-08T15:52:14;25.60;91.00
15409;DHT22;7803;48.130;13.788;2023-07-08T15:55:20;25.60;91.00
15409;DHT22;7803;48.130;13.788;2023-07-08T15:58:25;25.60;91.00
15409;DHT22;7803;48.130;13.788;2023-07-08T16:01:29;25.60;91.00
15409;DHT22;7803;48.130;13.788;2023-07-08T16:04:33;25.60;90.90
15409;DHT22;7803;48.130;13.788;2023-07-08T16:07:36;25.60;90.90
15409;DHT22;7803;48.130;13.788;2023-07-08T16:10:38;25.60;90.90
15409;DHT22;7803;48.130;13.788;2023-07-08T16:13:41;25.60;90.80
15409;DHT22;7803;48.130;13.788;2023-07-08T16:16:45;25.60;90.80
15409;DHT22;7803;48.130;13.788;2023-07-08T16:19:47;25.60;90.80
15409;DHT22;7803;48.130;13.788;2023-07-08T16:22:49;25.60;90.80
15409;DHT22;7803;48.130;13.788;2023-07-08T16:25:52;25.60;90.80
15409;DHT22;7803;48.130;13.788;2023-07-08T16:28:55;25.60;90.80
15409;DHT22;7803;48.130;13.788;2023-07-08T16:31:59;25.60;90.80
15409;DHT22;7803;48.130;13.788;2023-07-08T16:35:01;25.60;90.70
15409;DHT22;7803;48.130;13.788;2023-07-08T16:38:03;25.60;90.70
15409;DHT22;7803;48.130;13.788;2023-07-08T16:41:09;25.60;90.70
15409;DHT22;7803;48.130;13.788;2023-07-08T16:44:13;25.60;90.70
15409;DHT22;7803;48.130;13.788;2023-07-08T16:47:17;25.60;90.70
15409;DHT22;7803;48.130;13.788;2023-07-08T16:50:22;25.60;90.70
15409;DHT22;7803;48.130;13.788;2023-07-08T16:53:25;25.60;90.70
15409;DHT22;7803;48.130;13.788;2023-07-08T16:56:27;25.60;90.70
15409;DHT22;7803;48.130;13.788;2023-07-08T16:59:29;25.60;90.70
15409;DHT22;7803;48.130;13.788;2023-07-08T17:02:33;25.60;90.70
15409;DHT22;7803;48.130;13.788;2023-07-08T17:05:36;25.60;90.70
15409;DHT22;7803;48.130;13.788;2023-07-08T17:08:38;25.60;90.70
15409;DHT22;7803;48.130;13.788;2023-07-08T17:11:40;25.60;90.70
15409;DHT22;7803;48.130;13.788;2023-07-08T17:14:42;25.60;90.60
15409;DHT22;7803;48.130;13.788;2023-07-08T17:17:50;25.60;90.60
15409;DHT22;7803;48.130;13.788;2023-07-08T17:20:59;25.60;90.60
15409;DHT22;7803;48.130;13.788;2023-07-08T17:24:03;25.60;90.60
15409;DHT22;7803;48.130;13.788;2023-07-08T17:27:05;25.60;90.60
15409;DHT22;7803;48.130;13.788;2023-07-08T17:30:10;25.60;90.60
15409;DHT22;7803;48.130;13.788;2023-07-08T17:33:15;25.60;91.00
15409;DHT22;7803;48.130;13.788;2023-07-08T17:36:48;25.60;90.70
15409;DHT22;7803;48.130;13.788;2023-07-08T17:39:54;25.50;90.70
15409;DHT22;7803;48.130;13.788;2023-07-08T17:42:56;25.60;90.80
15409;DHT22;7803;48.130;13.788;2023-07-08T17:46:26;25.60;90.90
15409;DHT22;7803;48.130;13.788;2023-07-08T17:49:31;25.60;91.00
15409;DHT22;7803;48.130;13.788;2023-07-08T17:52:33;25.60;91.00
15409;DHT22;7803;48.130;13.788;2023-07-08T17:55:35;25.60;91.00
15409;DHT22;7803;48.130;13.788;2023-07-08T17:58:36;25.70;91.10
15409;DHT22;7803;48.130;13.788;2023-07-08T18:01:38;25.60;91.10
15409;DHT22;7803;48.130;13.788;2023-07-08T18:04:43;25.60;91.10
15409;DHT22;7803;48.130;13.788;2023-07-08T18:07:46;25.60;91.10
15409;DHT22;7803;48.130;13.788;2023-07-08T18:10:49;25.60;91.10
15409;DHT22;7803;48.130;13.788;2023-07-08T18:13:51;25.60;91.10
15409;DHT22;7803;48.130;13.788;2023-07-08T18:16:53;25.60;91.10
15409;DHT22;7803;48.130;13.788;2023-07-08T18:19:57;25.60;91.10
15409;DHT22;7803;48.130;13.788;2023-07-08T18:23:00;25.60;91.20
15409;DHT22;7803;48.130;13.788;2023-07-08T18:26:04;25.60;91.20
15409;DHT22;7803;48.130;13.788;2023-07-08T18:29:06;25.60;91.20
15409;DHT22;7803;48.130;13.788;2023-07-08T18:32:09;25.60;91.20
15409;DHT22;7803;48.130;13.788;2023-07-08T18:35:16;25.60;91.20
15409;DHT22;7803;48.130;13.788;2023-07-08T18:38:18;25.60;91.20
15409;DHT22;7803;48.130;13.788;2023-07-08T18:41:22;25.60;91.20
15409;DHT22;7803;48.130;13.788;2023-07-08T18:44:28;25.60;91.10
15409;DHT22;7803;48.130;13.788;2023-07-08T18:47:30;25.60;91.10
15409;DHT22;7803;48.130;13.788;2023-07-08T18:50:33;25.60;91.10
15409;DHT22;7803;48.130;13.788;2023-07-08T18:53:35;25.60;91.30
15409;DHT22;7803;48.130;13.788;2023-07-08T18:56:39;25.60;91.30
15409;DHT22;7803;48.130;13.788;2023-07-08T18:59:41;25.60;91.30
15409;DHT22;7803;48.130;13.788;2023-07-08T19:02:50;25.60;91.40
15409;DHT22;7803;48.130;13.788;2023-07-08T19:05:54;25.70;91.60
15409;DHT22;7803;48.130;13.788;2023-07-08T19:08:59;25.70;91.80
15409;DHT22;7803;48.130;13.788;2023-07-08T19:12:01;25.70;91.90
15409;DHT22;7803;48.130;13.788;2023-07-08T19:15:03;25.60;91.90
15409;DHT22;7803;48.130;13.788;2023-07-08T19:18:07;25.70;91.90
15409;DHT22;7803;48.130;13.788;2023-07-08T19:21:15;25.70;91.80
15409;DHT22;7803;48.130;13.788;2023-07-08T19:24:17;25.70;91.80
15409;DHT22;7803;48.130;13.788;2023-07-08T19:27:19;25.70;91.70